首页
METAR-TAF:

METAR-TAF

机场 :

凡城, 土耳其

纬度: 38-27N, 经度: 043-19E, 海拔: 1667米

当前天气观测

该预报发布于36分钟前的08:50 UTC
风速8节,风向东北,在北转东北之间变化
温度 8°C
湿度 76%
气压 1012 hPa
能見度: 8000
少量云层高于1000英尺, 积雨云.
散云层高于2500英尺
多云层高于7000英尺
小阵雨

METAR: LTCI 010850Z 04008KT 020V090 8000 -SHRA FEW010CB SCT025 BKN070 08/04 Q1012 TEMPO 20012KT

时间: 12:26 (09:26 UTC)

预报

该预报发布于1小时和46分钟前的07:40 UTC
预报有效从01日的 09点(UTC)到 01日的 18点(UTC)
风速2节,风向多变
能見度: 8000
散云层高于3000英尺
多云层高于7000英尺
短暂存在
从 01日的 09点(UTC)到 01日的 13点(UTC)
风速12节,风向南转西南
少量云层高于1500英尺, 积雨云.
多云层高于3000英尺
多云层高于6000英尺
小阵雨
短暂存在
从 01日的 13点(UTC)到 01日的 17点(UTC)
风速12节,风向南转西南
少量云层高于1500英尺, 积雨云.
多云层高于3000英尺
多云层高于6000英尺
小阵雨

TAF: LTCI 010740Z 0109/0118 VRB02KT 8000 SCT030 BKN070 TEMPO 0109/0113 20012KT -SHRA FEW015CB BKN030 BKN060 TEMPO 0113/0117 20012KT -SHRA FEW015CB BKN030 BKN060

超过4000个机场的气象观测和天气预报(METAR&TAF报告)。

可查询的气象台以黄色和红色小点在地图上表示。

将鼠标移到小点上方,可查看气象台名称。

然后点击查看天气观测和预报。

如需切换地图:点击带黑十字的绿色按钮放大地图;点击带横线的绿色按钮缩小地图;或者点击绿色箭头查看邻近地区的地图。


METAR-TAF: